Time;durP1;ratioP1;P1;durP2;ratioP2;P2;SDS_P1;SDS_P2;PMS_P1;PMS_P2;Temp;Humidity;BMP_temperature;BMP_pressure;BME280_temperature;BME280_humidity;BME280_pressure;Samples;Min_cycle;Max_cycle;Signal;HPM_P1;HPM_P2
2020/12/13 00:01:44;;;;;;;;;;;;;;;0.08;80.33;99433.17;126865;1098;21517;-56
2020/12/13 00:04:13;;;;;;;;;;;;;;;0.06;81.15;99436.36;127080;1098;21503;-58
2020/12/13 00:06:41;;;;;;;;;;;;;;;0.05;80.39;99440.29;126942;1098;21640;-57
2020/12/13 00:09:09;;;;;;;;;;;;;;;0.03;80.51;99433.67;126759;1098;21516;-56
2020/12/13 00:11:39;;;;;;;;;;;;;;;0.02;81.21;99435.67;126980;1098;21561;-54
2020/12/13 00:14:07;;;;;;;;;;;;;;;0.00;80.42;99438.07;126905;1098;22627;-57
2020/12/13 00:16:35;;;;;;;;;;;;;;;-0.02;80.25;99441.22;126749;1098;21556;-57
2020/12/13 00:19:03;;;;;;;;;;;;;;;-0.05;81.33;99444.05;126754;1098;21496;-54
2020/12/13 00:21:31;;;;;;;;;;;;;;;-0.07;80.59;99432.73;126969;1098;25614;-56
2020/12/13 00:24:00;;;;;;;;;;;;;;;-0.09;80.70;99437.87;126804;1098;21519;-57
2020/12/13 00:26:30;;;;;;;;;;;;;;;-0.14;80.48;99439.15;126895;1098;25831;-57
2020/12/13 00:28:59;;;;;;;;;;;;;;;-0.14;80.47;99447.38;126875;1098;21505;-56
2020/12/13 00:31:27;;;;;;;;;;;;;;;-0.16;81.01;99443.52;126932;1098;21509;-56
2020/12/13 00:33:55;;;;;;;;;;;;;;;-0.17;80.34;99450.21;126794;1098;25724;-55
2020/12/13 00:36:23;;;;;;;;;;;;;;;-0.20;80.96;99454.57;126871;1098;24589;-57
2020/12/13 00:38:51;;;;;;;;;;;;;;;-0.22;81.02;99462.45;126702;1098;21497;-58
2020/12/13 00:41:19;;;;;;;;;;;;;;;-0.22;80.63;99462.45;126700;1098;21493;-58
2020/12/13 00:43:50;;;;;;;;;;;;;;;-0.22;81.23;99464.41;126833;1098;21527;-54
2020/12/13 00:46:19;;;;;;;;;;;;;;;-0.24;80.45;99470.33;126767;1098;21477;-58
2020/12/13 00:48:50;;;;;;;;;;;;;;;-0.24;80.99;99472.30;126736;1098;21525;-60
2020/12/13 00:51:23;;;;;;;;;;;;;;;-0.23;80.73;99471.11;126676;1098;21501;-57
2020/12/13 00:53:54;;;;;;;;;;;;;;;-0.22;81.38;99469.91;126898;1098;21482;-55
2020/12/13 00:56:23;;;;;;;;;;;;;;;-0.20;81.08;99475.73;126836;1098;23344;-55
2020/12/13 00:58:51;;;;;;;;;;;;;;;-0.19;81.51;99471.81;126905;1098;21657;-55
2020/12/13 01:01:20;;;;;;;;;;;;;;;-0.20;80.59;99468.28;126943;1098;21486;-57
2020/12/13 01:03:48;;;;;;;;;;;;;;;-0.21;81.54;99466.72;126881;1098;21923;-57
2020/12/13 01:06:23;;;;;;;;;;;;;;;-0.21;80.84;99474.20;126842;1098;25804;-54
2020/12/13 01:08:52;;;;;;;;;;;;;;;-0.19;81.64;99485.52;126910;1098;21517;-55
2020/12/13 01:11:27;;;;;;;;;;;;;;;-0.20;81.05;99481.22;126927;1098;21477;-57
2020/12/13 01:13:56;;;;;;;;;;;;;;;-0.21;81.05;99488.67;126889;1098;21490;-56
2020/12/13 01:16:26;;;;;;;;;;;;;;;-0.21;81.44;99483.18;126908;1098;21505;-57
2020/12/13 01:18:54;;;;;;;;;;;;;;;-0.20;81.81;99484.74;126795;1098;21498;-57
2020/12/13 01:21:24;;;;;;;;;;;;;;;-0.20;81.85;99482.00;126783;1098;21697;-56
2020/12/13 01:23:52;;;;;;;;;;;;;;;-0.19;81.59;99482.78;126866;1098;21500;-57
2020/12/13 01:26:21;;;;;;;;;;;;;;;-0.18;82.44;99487.83;126851;1098;24435;-59
2020/12/13 01:28:49;;;;;;;;;;;;;;;-0.18;82.08;99485.09;126910;1098;21479;-55
2020/12/13 01:31:18;;;;;;;;;;;;;;;-0.18;82.69;99490.58;126999;1098;21570;-55
2020/12/13 01:33:47;;;;;;;;;;;;;;;-0.17;82.57;99488.61;126916;1098;21505;-57
2020/12/13 01:36:15;;;;;;;;;;;;;;;-0.16;82.47;99484.66;126960;1098;21528;-58
2020/12/13 01:38:44;;;;;;;;;;;;;;;-0.13;83.08;99486.56;126814;1098;21505;-56
2020/12/13 01:41:12;;;;;;;;;;;;;;;-0.12;83.03;99490.84;126900;1098;22885;-58
2020/12/13 01:43:41;;;;;;;;;;;;;;;-0.09;82.64;99492.74;126805;1098;22892;-58
2020/12/13 01:46:09;;;;;;;;;;;;;;;-0.06;83.01;99502.85;126762;1098;21497;-56
2020/12/13 01:48:38;;;;;;;;;;;;;;;-0.05;83.57;99496.19;126948;1098;21509;-54
2020/12/13 01:51:13;;;;;;;;;;;;;;;-0.04;83.65;99493.01;126776;1098;21493;-58
2020/12/13 01:53:41;;;;;;;;;;;;;;;-0.01;83.75;99496.88;126773;1098;21509;-56
2020/12/13 01:56:12;;;;;;;;;;;;;;;0.03;83.85;99497.56;126984;1098;21498;-56
2020/12/13 01:58:42;;;;;;;;;;;;;;;0.06;83.26;99496.73;126932;1098;21665;-56
2020/12/13 02:01:11;;;;;;;;;;;;;;;0.07;83.07;99505.72;126947;1098;21498;-55
2020/12/13 02:03:43;;;;;;;;;;;;;;;0.08;83.41;99505.31;126949;1098;21500;-54
2020/12/13 02:06:13;;;;;;;;;;;;;;;0.11;83.61;99503.66;126896;1098;21512;-54
2020/12/13 02:08:42;;;;;;;;;;;;;;;0.13;83.06;99501.27;126896;1098;21498;-57
2020/12/13 02:11:11;;;;;;;;;;;;;;;0.16;83.81;99511.41;126840;1098;21582;-58
2020/12/13 02:13:39;;;;;;;;;;;;;;;0.18;83.57;99519.98;126919;1098;21499;-57
2020/12/13 02:16:08;;;;;;;;;;;;;;;0.19;83.66;99519.55;126770;1098;21470;-57
2020/12/13 02:18:37;;;;;;;;;;;;;;;0.22;83.32;99509.69;127021;1098;21499;-59
2020/12/13 02:21:04;;;;;;;;;;;;;;;0.22;83.13;99513.22;126911;1098;23751;-54
2020/12/13 02:23:32;;;;;;;;;;;;;;;0.23;83.37;99517.49;126792;1098;21535;-55
2020/12/13 02:26:01;;;;;;;;;;;;;;;0.26;83.55;99513.13;126811;1098;21488;-56
2020/12/13 02:28:29;;;;;;;;;;;;;;;0.27;83.24;99517.44;126989;1098;21483;-56
2020/12/13 02:30:57;;;;;;;;;;;;;;;0.28;83.96;99510.73;126829;1098;21516;-57
2020/12/13 02:33:25;;;;;;;;;;;;;;;0.28;83.63;99510.73;126804;1090;24238;-58
2020/12/13 02:35:53;;;;;;;;;;;;;;;0.28;84.02;99516.22;126942;1098;21652;-57
2020/12/13 02:38:21;;;;;;;;;;;;;;;0.29;83.17;99515.78;126871;1098;21558;-59
2020/12/13 02:40:49;;;;;;;;;;;;;;;0.30;83.07;99516.56;126841;1098;21496;-54
2020/12/13 02:43:18;;;;;;;;;;;;;;;0.29;83.20;99513.04;126897;1098;21493;-55
2020/12/13 02:45:46;;;;;;;;;;;;;;;0.30;83.59;99519.31;126953;1098;21539;-57
2020/12/13 02:48:13;;;;;;;;;;;;;;;0.30;83.43;99522.83;126929;1098;24269;-57
2020/12/13 02:50:41;;;;;;;;;;;;;;;0.31;82.79;99521.62;126800;1098;21505;-57
2020/12/13 02:53:10;;;;;;;;;;;;;;;0.30;83.36;99509.11;126776;1098;21493;-58
2020/12/13 02:55:38;;;;;;;;;;;;;;;0.30;82.86;99517.34;126941;1098;21480;-56
2020/12/13 02:58:06;;;;;;;;;;;;;;;0.30;82.55;99520.09;127087;1098;21502;-58
2020/12/13 03:00:34;;;;;;;;;;;;;;;0.29;82.45;99520.52;126742;1098;21506;-57
2020/12/13 03:03:02;;;;;;;;;;;;;;;0.26;82.70;99524.11;126762;1098;21497;-56
2020/12/13 03:05:31;;;;;;;;;;;;;;;0.26;82.16;99533.12;126650;1098;21510;-57
2020/12/13 03:08:00;;;;;;;;;;;;;;;0.25;82.97;99531.56;126585;1098;21509;-57
2020/12/13 03:10:28;;;;;;;;;;;;;;;0.24;82.61;99527.28;126332;1098;22459;-57
2020/12/13 03:12:56;;;;;;;;;;;;;;;0.25;82.34;99528.82;126171;1090;24589;-59
2020/12/13 03:15:24;;;;;;;;;;;;;;;0.23;82.24;99531.22;126757;1098;24202;-58
2020/12/13 03:17:53;;;;;;;;;;;;;;;0.21;81.74;99530.13;126863;1098;21496;-55
2020/12/13 03:20:21;;;;;;;;;;;;;;;0.20;82.49;99531.30;127000;1098;21536;-60
2020/12/13 03:22:49;;;;;;;;;;;;;;;0.22;82.25;99531.66;126819;1098;21493;-56
2020/12/13 03:25:18;;;;;;;;;;;;;;;0.21;81.58;99530.13;126876;1098;21497;-56
2020/12/13 03:27:46;;;;;;;;;;;;;;;0.17;81.40;99523.91;126880;1098;21500;-55
2020/12/13 03:30:14;;;;;;;;;;;;;;;0.12;82.28;99533.45;126849;1098;21501;-57
2020/12/13 03:32:42;;;;;;;;;;;;;;;0.12;81.91;99530.70;126998;1098;21500;-57
2020/12/13 03:35:10;;;;;;;;;;;;;;;0.09;81.45;99536.25;126882;1098;21579;-58
2020/12/13 03:37:38;;;;;;;;;;;;;;;0.01;81.89;99543.87;126861;1098;23421;-55
2020/12/13 03:40:06;;;;;;;;;;;;;;;-0.05;81.81;99551.06;126990;1098;21526;-56
2020/12/13 03:42:35;;;;;;;;;;;;;;;-0.08;81.38;99549.93;126834;1098;21505;-54
2020/12/13 03:45:03;;;;;;;;;;;;;;;-0.12;81.76;99546.48;126978;1098;21519;-53
2020/12/13 03:47:31;;;;;;;;;;;;;;;-0.14;81.94;99543.39;126887;1098;25788;-57
2020/12/13 03:49:59;;;;;;;;;;;;;;;-0.15;81.97;99560.28;126885;1098;21589;-58
2020/12/13 03:52:27;;;;;;;;;;;;;;;-0.15;81.10;99554.80;126892;1092;24693;-55
2020/12/13 03:54:55;;;;;;;;;;;;;;;-0.15;81.85;99552.84;126900;1098;21493;-55
2020/12/13 03:57:24;;;;;;;;;;;;;;;-0.15;81.99;99546.57;126907;1098;21489;-54
2020/12/13 03:59:52;;;;;;;;;;;;;;;-0.15;81.98;99552.84;127101;1098;21567;-56
2020/12/13 04:02:20;;;;;;;;;;;;;;;-0.15;81.39;99560.28;126886;1098;21477;-56
2020/12/13 04:04:48;;;;;;;;;;;;;;;-0.17;81.65;99559.94;126955;1098;21953;-59
2020/12/13 04:07:16;;;;;;;;;;;;;;;-0.18;80.80;99553.67;126864;1099;21495;-55
2020/12/13 04:09:44;;;;;;;;;;;;;;;-0.20;81.53;99561.55;126843;1098;21567;-55
2020/12/13 04:12:12;;;;;;;;;;;;;;;-0.21;80.66;99562.73;126839;1098;21582;-58
2020/12/13 04:14:40;;;;;;;;;;;;;;;-0.24;80.82;99568.30;127000;1098;21489;-54
2020/12/13 04:17:08;;;;;;;;;;;;;;;-0.27;80.66;99564.42;126914;1098;21506;-57
2020/12/13 04:19:36;;;;;;;;;;;;;;;-0.28;80.45;99573.86;126921;1098;21491;-56
2020/12/13 04:22:04;;;;;;;;;;;;;;;-0.30;81.13;99569.98;126836;1098;21493;-55
2020/12/13 04:24:32;;;;;;;;;;;;;;;-0.32;81.38;99575.13;126826;1098;21484;-55
2020/12/13 04:27:02;;;;;;;;;;;;;;;-0.33;81.29;99576.33;126809;1098;21514;-56
2020/12/13 04:29:30;;;;;;;;;;;;;;;-0.36;80.94;99588.13;126949;1098;21515;-57
2020/12/13 04:31:58;;;;;;;;;;;;;;;-0.38;80.48;99579.55;127016;1098;21497;-56
2020/12/13 04:34:26;;;;;;;;;;;;;;;-0.39;81.39;99581.52;126691;1098;21731;-57
2020/12/13 04:36:54;;;;;;;;;;;;;;;-0.38;81.10;99585.81;126844;1098;23789;-58
2020/12/13 04:39:22;;;;;;;;;;;;;;;-0.40;80.75;99581.94;126890;1098;21787;-56
2020/12/13 04:41:50;;;;;;;;;;;;;;;-0.43;80.49;99580.03;126709;1098;21639;-54
2020/12/13 04:44:19;;;;;;;;;;;;;;;-0.49;80.55;99582.49;126801;1098;23169;-57
2020/12/13 04:46:47;;;;;;;;;;;;;;;-0.52;80.91;99582.56;126812;1098;22907;-58
2020/12/13 04:49:15;;;;;;;;;;;;;;;-0.53;80.16;99581.00;126814;1098;21566;-56
2020/12/13 04:51:43;;;;;;;;;;;;;;;-0.57;80.97;99580.30;126753;1099;21489;-59
2020/12/13 04:54:14;;;;;;;;;;;;;;;-0.62;80.52;99580.80;127068;1098;21560;-56
2020/12/13 04:56:43;;;;;;;;;;;;;;;-0.69;80.75;99578.96;126829;1098;21493;-57
2020/12/13 04:59:12;;;;;;;;;;;;;;;-0.70;81.51;99585.62;126840;1098;21497;-55
2020/12/13 05:01:40;;;;;;;;;;;;;;;-0.67;80.34;99584.02;126916;1098;23115;-55
2020/12/13 05:04:09;;;;;;;;;;;;;;;-0.70;81.26;99590.34;126962;1098;23719;-57
2020/12/13 05:06:38;;;;;;;;;;;;;;;-0.71;81.03;99583.30;127018;1098;21563;-58
2020/12/13 05:09:06;;;;;;;;;;;;;;;-0.68;80.55;99591.45;126838;1098;22909;-57
2020/12/13 05:11:35;;;;;;;;;;;;;;;-0.68;80.43;99596.19;126900;1098;21479;-55
2020/12/13 05:14:03;;;;;;;;;;;;;;;-0.69;81.14;99594.63;126900;1098;21505;-58
2020/12/13 05:16:31;;;;;;;;;;;;;;;-0.70;81.04;99598.57;126850;1098;21610;-56
2020/12/13 05:19:00;;;;;;;;;;;;;;;-0.71;80.27;99595.05;126952;1098;21500;-56
2020/12/13 05:21:32;;;;;;;;;;;;;;;-0.73;80.32;99597.44;126853;1098;25706;-58
2020/12/13 05:24:03;;;;;;;;;;;;;;;-0.73;81.03;99594.70;126998;1098;21487;-58
2020/12/13 05:26:36;;;;;;;;;;;;;;;-0.75;80.22;99607.27;127091;1098;21505;-55
2020/12/13 05:29:05;;;;;;;;;;;;;;;-0.76;80.28;99611.18;127067;1098;21952;-58
2020/12/13 05:31:40;;;;;;;;;;;;;;;-0.83;80.04;99614.84;127004;1098;23191;-59
2020/12/13 05:34:14;;;;;;;;;;;;;;;-0.89;80.26;99619.25;126952;1098;23056;-57
2020/12/13 05:36:44;;;;;;;;;;;;;;;-0.94;80.44;99619.72;126969;1098;21500;-55
2020/12/13 05:39:13;;;;;;;;;;;;;;;-1.11;79.96;99627.02;126865;1098;24215;-57
2020/12/13 05:41:41;;;;;;;;;;;;;;;-1.31;79.98;99636.34;126890;1098;21640;-54
2020/12/13 05:44:27;;;;;;;;;;;;;;;-1.46;79.96;99633.03;126845;1098;21563;-56
2020/12/13 05:47:05;;;;;;;;;;;;;;;-1.53;80.97;99637.84;126711;1098;23169;-58
2020/12/13 05:50:09;;;;;;;;;;;;;;;-1.63;81.39;99631.30;126816;1098;23718;-58
2020/12/13 05:52:42;;;;;;;;;;;;;;;-1.63;81.65;99638.77;126783;1098;21491;-54
2020/12/13 05:55:11;;;;;;;;;;;;;;;-1.56;81.91;99638.65;126810;1098;21497;-54
2020/12/13 05:57:40;;;;;;;;;;;;;;;-1.55;82.07;99632.75;126786;1098;21498;-53
2020/12/13 06:00:09;;;;;;;;;;;;;;;-1.53;80.91;99637.84;126737;1098;21636;-56
2020/12/13 06:02:37;;;;;;;;;;;;;;;-1.52;81.49;99639.38;126895;1097;21560;-57
2020/12/13 06:05:06;;;;;;;;;;;;;;;-1.49;80.87;99646.77;126892;1098;21493;-57
2020/12/13 06:07:36;;;;;;;;;;;;;;;-1.45;81.37;99651.02;127199;1098;21490;-57
2020/12/13 06:10:06;;;;;;;;;;;;;;;-1.43;81.12;99654.12;126990;1098;21497;-56
2020/12/13 06:12:34;;;;;;;;;;;;;;;-1.40;81.08;99660.70;127172;1098;21493;-57
2020/12/13 06:15:03;;;;;;;;;;;;;;;-1.37;80.74;99652.47;126800;1098;24435;-57
2020/12/13 06:17:31;;;;;;;;;;;;;;;-1.40;81.05;99652.50;127030;1098;21568;-56
2020/12/13 06:20:00;;;;;;;;;;;;;;;-1.39;80.12;99656.80;126831;1098;24404;-55
2020/12/13 06:22:31;;;;;;;;;;;;;;;-1.37;80.86;99662.63;126863;1098;21526;-57
2020/12/13 06:24:59;;;;;;;;;;;;;;;-1.50;80.73;99678.84;126893;1098;24237;-58
2020/12/13 06:27:27;;;;;;;;;;;;;;;-1.71;80.98;99673.64;126854;1098;21509;-56
2020/12/13 06:29:55;;;;;;;;;;;;;;;-1.74;80.85;99677.20;126893;1098;24206;-59
2020/12/13 06:32:25;;;;;;;;;;;;;;;-1.73;81.25;99676.79;126824;1099;21488;-57
2020/12/13 06:34:55;;;;;;;;;;;;;;;-1.67;81.80;99671.63;126975;1098;21561;-57
2020/12/13 06:37:23;;;;;;;;;;;;;;;-1.65;81.10;99680.20;126883;1098;21800;-57
2020/12/13 06:39:51;;;;;;;;;;;;;;;-1.66;81.55;99687.66;126909;1098;21567;-56
2020/12/13 06:42:23;;;;;;;;;;;;;;;-1.71;81.01;99690.84;126798;1098;21496;-57
2020/12/13 06:45:01;;;;;;;;;;;;;;;-1.68;81.60;99686.52;126944;1098;24437;-57
2020/12/13 06:47:31;;;;;;;;;;;;;;;-1.67;81.48;99685.31;126892;1098;21570;-57
2020/12/13 06:49:59;;;;;;;;;;;;;;;-1.66;81.95;99692.35;127001;1098;21522;-57
2020/12/13 06:52:30;;;;;;;;;;;;;;;-1.61;82.28;99699.34;126761;1098;21567;-57
2020/12/13 06:55:00;;;;;;;;;;;;;;;-1.56;81.96;99696.91;126831;1098;21952;-56
2020/12/13 06:57:31;;;;;;;;;;;;;;;-1.51;82.57;99704.65;126966;1098;21513;-56
2020/12/13 07:00:03;;;;;;;;;;;;;;;-1.50;81.80;99708.95;126833;1098;21560;-58
2020/12/13 07:02:44;;;;;;;;;;;;;;;-1.48;82.72;99706.58;127065;1098;21474;-58
2020/12/13 07:05:13;;;;;;;;;;;;;;;-1.48;82.58;99724.95;126859;1098;21496;-56
2020/12/13 07:07:46;;;;;;;;;;;;;;;-1.54;82.37;99727.39;126947;1098;21549;-59
2020/12/13 07:10:14;;;;;;;;;;;;;;;-1.51;82.55;99712.86;126949;1098;24204;-57
2020/12/13 07:12:48;;;;;;;;;;;;;;;-1.43;83.13;99713.56;126931;1098;21497;-54
2020/12/13 07:15:23;;;;;;;;;;;;;;;-1.38;82.26;99722.09;126869;1098;21496;-58
2020/12/13 07:17:52;;;;;;;;;;;;;;;-1.31;82.73;99726.70;126970;1098;21488;-57
2020/12/13 07:20:21;;;;;;;;;;;;;;;-1.25;82.69;99725.83;126869;1098;21753;-54
2020/12/13 07:22:54;;;;;;;;;;;;;;;-1.17;82.61;99737.45;127096;1098;21474;-58
2020/12/13 07:25:22;;;;;;;;;;;;;;;-1.13;82.68;99738.97;126846;1098;21491;-57
2020/12/13 07:27:51;;;;;;;;;;;;;;;-1.07;83.22;99736.53;127044;1098;21502;-58
2020/12/13 07:30:19;;;;;;;;;;;;;;;-1.01;82.60;99737.62;127057;1098;21510;-54
2020/12/13 07:32:47;;;;;;;;;;;;;;;-0.98;83.07;99739.55;126726;1098;21492;-61
2020/12/13 07:35:16;;;;;;;;;;;;;;;-0.93;82.80;99745.33;126963;1098;21493;-57
2020/12/13 07:37:45;;;;;;;;;;;;;;;-0.87;83.18;99746.41;126860;1098;21483;-58
2020/12/13 07:40:13;;;;;;;;;;;;;;;-0.78;83.79;99745.89;126849;1098;21486;-55
2020/12/13 07:42:53;;;;;;;;;;;;;;;-0.72;83.43;99744.23;126924;1098;25846;-60
2020/12/13 07:45:21;;;;;;;;;;;;;;;-0.65;82.92;99746.09;126795;1098;23718;-56
2020/12/13 07:47:50;;;;;;;;;;;;;;;-0.60;83.34;99751.88;126774;1098;21945;-57
2020/12/13 07:50:18;;;;;;;;;;;;;;;-0.53;83.36;99754.52;126818;1098;24539;-59
2020/12/13 07:52:46;;;;;;;;;;;;;;;-0.46;83.93;99768.12;126981;1098;21474;-59
2020/12/13 07:55:14;;;;;;;;;;;;;;;-0.41;83.08;99759.41;126762;1098;25693;-57
2020/12/13 07:57:48;;;;;;;;;;;;;;;-0.36;83.26;99763.64;126748;1098;21501;-56
2020/12/13 08:00:18;;;;;;;;;;;;;;;-0.33;83.15;99762.83;126691;1098;21527;-58
2020/12/13 08:02:50;;;;;;;;;;;;;;;-0.29;83.07;99772.52;127383;1098;24335;-58
2020/12/13 08:05:26;;;;;;;;;;;;;;;-0.26;83.13;99770.92;126575;1090;21501;-57
2020/12/13 08:07:59;;;;;;;;;;;;;;;-0.20;83.23;99780.22;126657;1098;21636;-57
2020/12/13 08:10:28;;;;;;;;;;;;;;;-0.13;84.10;99782.86;126802;1098;24504;-57
2020/12/13 08:12:57;;;;;;;;;;;;;;;-0.09;83.67;99776.12;126696;1098;24555;-58
2020/12/13 08:15:25;;;;;;;;;;;;;;;-0.04;83.47;99780.33;126821;1098;24396;-57
2020/12/13 08:18:02;;;;;;;;;;;;;;;0.00;84.15;99789.30;126739;1098;21497;-56
2020/12/13 08:20:32;;;;;;;;;;;;;;;0.03;83.75;99791.19;126609;1093;21510;-57
2020/12/13 08:23:02;;;;;;;;;;;;;;;0.06;83.91;99789.59;126698;1098;21548;-57
2020/12/13 08:25:35;;;;;;;;;;;;;;;0.10;83.91;99790.30;126758;1090;21500;-57
2020/12/13 08:28:04;;;;;;;;;;;;;;;0.18;84.28;99792.50;126625;1098;21490;-59
2020/12/13 08:30:33;;;;;;;;;;;;;;;0.25;83.67;99797.09;126430;1098;25817;-60
2020/12/13 08:33:01;;;;;;;;;;;;;;;0.26;83.50;99793.14;126439;1098;21564;-57
2020/12/13 08:35:32;;;;;;;;;;;;;;;0.27;83.46;99787.22;126353;1093;23144;-60
2020/12/13 08:38:01;;;;;;;;;;;;;;;0.32;84.31;99797.72;126650;1098;21660;-55
2020/12/13 08:40:37;;;;;;;;;;;;;;;0.36;84.26;99797.65;126887;1098;21502;-57
2020/12/13 08:43:05;;;;;;;;;;;;;;;0.39;83.83;99805.06;126858;1098;21516;-57
2020/12/13 08:45:35;;;;;;;;;;;;;;;0.44;83.77;99804.55;126612;1098;21499;-54
2020/12/13 08:48:04;;;;;;;;;;;;;;;0.47;83.65;99810.00;126907;1098;21598;-57
2020/12/13 08:50:39;;;;;;;;;;;;;;;0.50;83.81;99808.36;126637;1098;24353;-58
2020/12/13 08:53:21;;;;;;;;;;;;;;;0.51;84.63;99809.92;126874;1098;21497;-53
2020/12/13 08:56:02;;;;;;;;;;;;;;;0.55;84.04;99814.16;126509;1098;21928;-56
2020/12/13 08:58:30;;;;;;;;;;;;;;;0.60;84.53;99812.90;126394;1098;21566;-54
2020/12/13 09:01:07;;;;;;;;;;;;;;;0.62;84.60;99822.24;126461;1098;21505;-58
2020/12/13 09:03:35;;;;;;;;;;;;;;;0.67;84.37;99829.23;126644;1098;21563;-54
2020/12/13 09:06:03;;;;;;;;;;;;;;;0.71;84.40;99830.71;126339;1098;24199;-58
2020/12/13 09:08:32;;;;;;;;;;;;;;;0.75;84.00;99831.41;127016;1093;23274;-58
2020/12/13 09:11:04;;;;;;;;;;;;;;;0.79;84.04;99825.84;127272;1098;21510;-60
2020/12/13 09:13:33;;;;;;;;;;;;;;;0.83;84.07;99835.56;126568;1098;22066;-58
2020/12/13 09:16:01;;;;;;;;;;;;;;;0.89;84.38;99824.09;126614;1098;21509;-59
2020/12/13 09:18:29;;;;;;;;;;;;;;;0.97;84.04;99837.27;126417;1098;24327;-57
2020/12/13 09:20:57;;;;;;;;;;;;;;;1.01;84.46;99837.19;126498;1098;21496;-57
2020/12/13 09:23:25;;;;;;;;;;;;;;;1.01;84.41;99839.94;126425;1098;21598;-58
2020/12/13 09:25:54;;;;;;;;;;;;;;;1.02;84.17;99838.73;126655;1098;21560;-57
2020/12/13 09:28:24;;;;;;;;;;;;;;;1.05;84.53;99841.42;127307;1098;21474;-59
2020/12/13 09:30:52;;;;;;;;;;;;;;;1.09;84.72;99841.34;126671;1098;21586;-60
2020/12/13 09:33:24;;;;;;;;;;;;;;;1.08;84.42;99848.02;126512;1098;21639;-66
2020/12/13 09:35:52;;;;;;;;;;;;;;;1.04;84.17;99848.10;126568;1098;21520;-59
2020/12/13 09:38:21;;;;;;;;;;;;;;;1.06;84.51;99845.70;126389;1098;21500;-71
2020/12/13 09:40:49;;;;;;;;;;;;;;;1.12;84.61;99846.75;128270;1098;21773;-59
2020/12/13 09:43:18;;;;;;;;;;;;;;;1.16;84.12;99847.45;126420;1098;22724;-60
2020/12/13 09:45:46;;;;;;;;;;;;;;;1.20;84.90;99839.91;126659;1098;21802;-59
2020/12/13 09:48:15;;;;;;;;;;;;;;;1.24;85.04;99840.59;126436;1098;21563;-69
2020/12/13 09:52:57;;;;;;;235.90;106.15;;;;;;;1.31;84.37;99845.17;126579;1098;28133;-64
2020/12/13 09:55:28;;;;;;;176.03;75.87;;;;;;;1.33;84.61;99843.55;126429;1099;23370;-60
2020/12/13 09:57:57;;;;;;;180.73;78.53;;;;;;;1.39;84.57;99838.31;130043;1099;23835;-57
2020/12/13 10:00:27;;;;;;;194.43;84.83;;;;;;;1.46;85.07;99836.20;126520;1100;23349;-59
2020/12/13 10:02:56;;;;;;;198.27;88.73;;;;;;;1.51;85.23;99843.17;126555;1100;23466;-57
2020/12/13 10:05:35;;;;;;;213.25;95.72;;;;;;;1.55;84.52;99844.62;126451;1100;23990;-55
2020/12/13 10:10:58;;;;;;;289.57;140.97;;;;;;;1.64;84.61;99833.81;126134;1102;23392;-57
2020/12/13 10:13:31;;;;;;;243.55;110.65;;;;;;;1.69;84.84;99842.76;126234;1096;23483;-55
2020/12/13 10:16:01;;;;;;;195.03;87.80;;;;;;;1.70;84.94;99839.56;126268;1101;23430;-58
2020/12/13 10:18:31;;;;;;;197.00;80.10;;;;;;;1.76;85.16;99834.34;126010;1104;23537;-58
2020/12/13 10:21:01;;;;;;;219.17;82.70;;;;;;;1.80;84.64;99838.54;126002;1104;23696;-59
2020/12/13 10:23:30;;;;;;;201.87;86.27;;;;;;;1.87;84.85;99838.38;126120;1104;26667;-58
2020/12/13 10:26:00;;;;;;;209.57;93.00;;;;;;;1.92;85.11;99832.38;125831;1104;23506;-58
2020/12/13 10:28:30;;;;;;;323.73;132.10;;;;;;;1.99;84.55;99828.65;126030;1103;24858;-58
2020/12/13 10:31:00;;;;;;;272.67;116.07;;;;;;;2.03;84.36;99835.63;125694;1102;23961;-64
2020/12/13 10:33:29;;;;;;;237.97;102.20;;;;;;;2.10;85.20;99829.17;125736;1104;27301;-64
2020/12/13 10:35:58;;;;;;;205.43;80.60;;;;;;;2.13;85.02;99836.58;125619;1102;24833;-61
2020/12/13 10:38:28;;;;;;;211.75;83.55;;;;;;;2.13;85.12;99829.07;126059;1101;23303;-57
2020/12/13 10:40:58;;;;;;;217.77;91.80;;;;;;;2.17;84.79;99835.27;125993;1102;26295;-61
2020/12/13 10:43:27;;;;;;;200.93;85.90;;;;;;;2.22;84.79;99836.73;126164;1097;23349;-59
2020/12/13 10:45:57;;;;;;;197.20;83.45;;;;;;;2.27;84.68;99834.24;126196;1101;23345;-58
2020/12/13 10:48:26;;;;;;;155.50;67.70;;;;;;;2.34;85.31;99827.75;126489;1098;23471;-59
2020/12/13 10:50:56;;;;;;;195.83;83.80;;;;;;;2.41;85.31;99828.36;126481;1098;23479;-57
2020/12/13 10:53:26;;;;;;;161.93;73.00;;;;;;;2.44;85.08;99829.48;126490;1098;24834;-59
2020/12/13 10:55:55;;;;;;;152.57;70.40;;;;;;;2.48;84.91;99829.38;126527;1098;23966;-61
2020/12/13 10:58:24;;;;;;;163.33;70.30;;;;;;;2.53;85.16;99826.85;127199;1098;26938;-62
2020/12/13 11:00:56;;;;;;;149.60;66.27;;;;;;;2.57;85.07;99830.28;126804;1098;23429;-62
2020/12/13 11:03:25;;;;;;;146.60;62.87;;;;;;;2.59;84.95;99829.88;127257;1098;23383;-62
2020/12/13 11:05:55;;;;;;;150.83;63.27;;;;;;;2.62;84.82;99826.23;126527;1098;23326;-61
2020/12/13 11:08:24;;;;;;;144.43;63.37;;;;;;;2.68;84.96;99833.53;126381;1098;23361;-57
2020/12/13 11:10:54;;;;;;;133.27;62.30;;;;;;;2.76;84.90;99831.34;126632;1098;23457;-59
2020/12/13 11:13:23;;;;;;;148.13;69.70;;;;;;;2.79;84.58;99830.48;126694;1093;23520;-55
2020/12/13 11:15:53;;;;;;;140.23;65.10;;;;;;;2.82;84.56;99835.12;126659;1098;23773;-58
2020/12/13 11:18:23;;;;;;;138.52;64.40;;;;;;;2.85;84.55;99835.03;126518;1098;23369;-58
2020/12/13 11:20:55;;;;;;;149.18;69.00;;;;;;;2.87;84.58;99832.62;126771;1098;23372;-59
2020/12/13 11:23:24;;;;;;;142.53;63.93;;;;;;;2.92;84.89;99839.55;126619;1098;23431;-58
2020/12/13 11:25:54;;;;;;;142.97;65.10;;;;;;;2.97;84.82;99839.03;126538;1098;24813;-58
2020/12/13 11:28:27;;;;;;;147.95;65.28;;;;;;;2.98;84.09;99855.13;126530;1098;23356;-57
2020/12/13 11:30:56;;;;;;;137.80;59.90;;;;;;;2.95;84.43;99849.72;126497;1098;23661;-59
2020/12/13 11:33:26;;;;;;;138.77;59.87;;;;;;;2.96;83.84;99848.53;127016;1098;23423;-58
2020/12/13 11:35:56;;;;;;;128.40;56.37;;;;;;;3.00;84.45;99855.47;126447;1098;24846;-60
2020/12/13 11:38:26;;;;;;;127.95;56.65;;;;;;;3.05;84.15;99856.91;126678;1098;23332;-61
2020/12/13 11:40:56;;;;;;;132.23;56.83;;;;;;;3.07;84.27;99858.03;126430;1098;23319;-58
2020/12/13 11:43:31;;;;;;;140.07;57.75;;;;;;;3.11;84.11;99857.92;127913;1098;25479;-60
2020/12/13 11:46:01;;;;;;;132.53;58.87;;;;;;;3.16;84.30;99852.66;126487;1098;23291;-60
2020/12/13 11:48:30;;;;;;;128.15;56.50;;;;;;;3.21;84.27;99857.62;126332;1098;23319;-61
2020/12/13 11:51:02;;;;;;;127.90;56.53;;;;;;;3.24;84.29;99867.01;126301;1098;27158;-58
2020/12/13 11:53:31;;;;;;;126.27;58.60;;;;;;;3.28;84.45;99867.67;126680;1098;23383;-59
2020/12/13 11:56:02;;;;;;;122.03;55.97;;;;;;;3.32;84.37;99865.59;126184;1093;23312;-59
2020/12/13 11:58:32;;;;;;;135.03;63.20;;;;;;;3.33;84.21;99860.85;125828;1099;23481;-57
2020/12/13 12:01:02;;;;;;;124.20;60.30;;;;;;;3.37;84.35;99867.03;125875;1098;26059;-57
2020/12/13 12:03:32;;;;;;;130.93;57.93;;;;;;;3.40;83.84;99863.37;125967;1098;23435;-58
2020/12/13 12:06:01;;;;;;;129.68;58.40;;;;;;;3.41;83.84;99862.18;126244;1098;23385;-61
2020/12/13 12:08:31;;;;;;;128.60;60.93;;;;;;;3.42;83.70;99860.95;125918;1098;23893;-58
2020/12/13 12:11:03;;;;;;;141.43;66.65;;;;;;;3.42;83.79;99861.73;126546;1093;23382;-59
2020/12/13 12:13:32;;;;;;;124.93;56.50;;;;;;;3.41;84.20;99862.96;126148;1098;23350;-57
2020/12/13 12:16:02;;;;;;;136.20;60.78;;;;;;;3.44;84.21;99864.05;126386;1098;23716;-59
2020/12/13 12:18:32;;;;;;;151.77;71.00;;;;;;;3.48;83.78;99861.95;126391;1098;23320;-58
2020/12/13 12:21:03;;;;;;;128.13;60.13;;;;;;;3.51;83.86;99861.08;125951;1098;23387;-58
2020/12/13 12:23:33;;;;;;;139.37;69.07;;;;;;;3.52;83.79;99859.89;125607;1098;23370;-56
2020/12/13 12:26:03;;;;;;;137.77;65.20;;;;;;;3.56;84.04;99866.82;125871;1098;23469;-55
2020/12/13 12:28:34;;;;;;;151.72;73.65;;;;;;;3.58;83.85;99858.88;126953;1093;23454;-57
2020/12/13 12:31:03;;;;;;;139.25;61.70;;;;;;;3.59;83.77;99854.91;125916;1098;23369;-56
2020/12/13 12:33:33;;;;;;;135.45;62.70;;;;;;;3.60;84.04;99850.92;126259;1098;23318;-57
2020/12/13 12:36:03;;;;;;;168.07;77.35;;;;;;;3.61;83.91;99855.25;126256;1098;23888;-59